Аэропорт: Полярный. Удачный

ICAO: UERP

METAR:
2024-04-22 21:00:00
UERP 222100Z 31002MPS 0400 FZFG VV002 M03/M03 Q1008 R35/550345 NOSIG RMK QBB070 QFE712
TAF:
2024-04-22 20:00:00
TAF UERP 222000Z 2221/2321 31003MPS 0500 FZFG VV002 
  TEMPO 2222/2303 1500 SHSN BR BKN003 OVC015CB 
  FM230300 36003G09MPS 4000 -SHRASN BKN015CB 
  TEMPO 2303/2306 1000 SHSNRA VV003